Portada
METAR-TAF:

METAR-TAF

Aeroports :

Mönchengladbach, Alemanya

latitud: 51-13-49N, longitud: 006-30-16E, altitud: 38 m

Observació

L'informe es va fer fa 25 minuts, a les 23:20 UTC
Vent 5 kt del Sud-Oest
Temperatura 2°C
Humitat 93%
Pressió 1006 hPa
Visibilitat 10 km o més

METAR: EDLN 262320Z AUTO 23005KT 9999 // FEW013/// SCT027/// 02/01 Q1006

Hora: 00:45 (23:45 UTC)

Pronòstic

L'informe es va fer fa 6 hores i 45 minuts, a les 17:00 UTC
Pronòstic vàlid del 26 a les 18 UTC al 27 a les 03 UTC
Vent 7 kt del Oest
Visibilitat 10 km o més
Cel ennuvolat a una alçada de 2000 ft
Temporalment
l' 26 a les 18 UTC al 26 a les 20 UTC
Vent 15 kt del Oest amb ràfegues de 25 kt
Visibilitat: 4000 m
Cel ennuvolat a una alçada de 1400 ft, Cumulonimbus.
xàfecs de pluja
Evolucionant progressivament
l' 26 a les 21 UTC al 26 a les 24 UTC
Vent 7 kt del Sud-Oest

TAF: EDLN 261700Z 2618/2703 28007KT 9999 BKN020 TEMPO 2618/2620 28015G25KT 4000 SHRA BKN014CB BECMG 2621/2624 22007KT

Observacions i pronòstics meteorològics de més de 4000 aeroports (METAR i TAF).

Les estacions disponibles són els punts grocs i vermells al mapa.

Posi el ratolí al punt desitjat per veure el nom de l'estació.

Feu clic per veure les observacions i els pronòstics meteorològics.

Per canviar el mapa: feu clic els botons verds amb una creu de color negre per apropar; al botó verd amb un guió per allunyar la imatge; o en les fletxes verdes per a mapes adjacents.


METAR-TAF: